sensor_id;sensor_type;location;lat;lon;timestamp;pressure;altitude;pressure_sealevel;temperature;humidity
51452;BME280;37521;52.020;-1.740;2022-12-07T00:01:37;100802.66;;;-2.54;100.00
51452;BME280;37521;52.020;-1.740;2022-12-07T00:04:08;100804.59;;;-2.42;100.00
51452;BME280;37521;52.020;-1.740;2022-12-07T00:06:38;100794.44;;;-2.33;100.00
51452;BME280;37521;52.020;-1.740;2022-12-07T00:09:09;100790.97;;;-2.33;100.00
51452;BME280;37521;52.020;-1.740;2022-12-07T00:11:38;100791.88;;;-2.30;100.00
51452;BME280;37521;52.020;-1.740;2022-12-07T00:14:07;100791.88;;;-2.31;100.00
51452;BME280;37521;52.020;-1.740;2022-12-07T00:16:39;100790.75;;;-2.45;100.00
51452;BME280;37521;52.020;-1.740;2022-12-07T00:19:10;100792.22;;;-2.58;100.00
51452;BME280;37521;52.020;-1.740;2022-12-07T00:21:39;100793.75;;;-2.68;100.00
51452;BME280;37521;52.020;-1.740;2022-12-07T00:24:07;100792.81;;;-2.71;100.00
51452;BME280;37521;52.020;-1.740;2022-12-07T00:26:37;100784.19;;;-2.73;100.00
51452;BME280;37521;52.020;-1.740;2022-12-07T00:29:08;100785.13;;;-2.68;100.00
51452;BME280;37521;52.020;-1.740;2022-12-07T00:31:40;100790.34;;;-2.67;100.00
51452;BME280;37521;52.020;-1.740;2022-12-07T00:34:12;100789.50;;;-2.64;100.00
51452;BME280;37521;52.020;-1.740;2022-12-07T00:36:41;100785.22;;;-2.62;100.00
51452;BME280;37521;52.020;-1.740;2022-12-07T00:39:10;100782.78;;;-2.56;100.00
51452;BME280;37521;52.020;-1.740;2022-12-07T00:41:38;100781.03;;;-2.57;100.00
51452;BME280;37521;52.020;-1.740;2022-12-07T00:44:06;100779.31;;;-2.57;100.00
51452;BME280;37521;52.020;-1.740;2022-12-07T00:46:34;100785.34;;;-2.58;100.00
51452;BME280;37521;52.020;-1.740;2022-12-07T00:49:04;100785.97;;;-2.68;100.00
51452;BME280;37521;52.020;-1.740;2022-12-07T00:51:32;100786.03;;;-2.66;100.00
51452;BME280;37521;52.020;-1.740;2022-12-07T00:54:00;100793.19;;;-2.53;100.00
51452;BME280;37521;52.020;-1.740;2022-12-07T00:56:29;100788.19;;;-2.44;100.00
51452;BME280;37521;52.020;-1.740;2022-12-07T00:58:58;100791.66;;;-2.42;100.00
51452;BME280;37521;52.020;-1.740;2022-12-07T01:01:28;100783.72;;;-2.53;100.00
51452;BME280;37521;52.020;-1.740;2022-12-07T01:03:57;100784.44;;;-2.60;100.00
51452;BME280;37521;52.020;-1.740;2022-12-07T01:06:30;100781.88;;;-2.58;100.00
51452;BME280;37521;52.020;-1.740;2022-12-07T01:08:58;100782.72;;;-2.59;100.00
51452;BME280;37521;52.020;-1.740;2022-12-07T01:11:28;100784.47;;;-2.58;100.00
51452;BME280;37521;52.020;-1.740;2022-12-07T01:13:58;100784.59;;;-2.52;100.00
51452;BME280;37521;52.020;-1.740;2022-12-07T01:16:29;100775.13;;;-2.50;100.00
51452;BME280;37521;52.020;-1.740;2022-12-07T01:18:58;100770.03;;;-2.47;100.00
51452;BME280;37521;52.020;-1.740;2022-12-07T01:21:29;100767.44;;;-2.47;100.00
51452;BME280;37521;52.020;-1.740;2022-12-07T01:24:02;100767.50;;;-2.44;100.00
51452;BME280;37521;52.020;-1.740;2022-12-07T01:26:30;100766.53;;;-2.49;100.00
51452;BME280;37521;52.020;-1.740;2022-12-07T01:28:58;100769.94;;;-2.52;100.00
51452;BME280;37521;52.020;-1.740;2022-12-07T01:31:28;100763.09;;;-2.48;100.00
51452;BME280;37521;52.020;-1.740;2022-12-07T01:33:58;100768.47;;;-2.39;100.00
51452;BME280;37521;52.020;-1.740;2022-12-07T01:36:29;100767.53;;;-2.41;100.00
51452;BME280;37521;52.020;-1.740;2022-12-07T01:38:59;100762.44;;;-2.38;100.00
51452;BME280;37521;52.020;-1.740;2022-12-07T01:41:31;100771.09;;;-2.36;100.00
51452;BME280;37521;52.020;-1.740;2022-12-07T01:44:19;100776.25;;;-2.36;100.00
51452;BME280;37521;52.020;-1.740;2022-12-07T01:46:49;100777.19;;;-2.32;100.00
51452;BME280;37521;52.020;-1.740;2022-12-07T01:49:23;100776.44;;;-2.27;100.00
51452;BME280;37521;52.020;-1.740;2022-12-07T01:51:58;100775.66;;;-2.21;100.00
51452;BME280;37521;52.020;-1.740;2022-12-07T01:54:28;100776.63;;;-2.14;100.00
51452;BME280;37521;52.020;-1.740;2022-12-07T01:56:57;100772.47;;;-2.06;100.00
51452;BME280;37521;52.020;-1.740;2022-12-07T01:59:26;100774.28;;;-2.01;100.00
51452;BME280;37521;52.020;-1.740;2022-12-07T02:01:55;100770.00;;;-2.00;100.00
51452;BME280;37521;52.020;-1.740;2022-12-07T02:04:24;100774.31;;;-1.99;100.00
51452;BME280;37521;52.020;-1.740;2022-12-07T02:06:54;100768.22;;;-2.01;100.00
51452;BME280;37521;52.020;-1.740;2022-12-07T02:09:23;100764.81;;;-2.00;100.00
51452;BME280;37521;52.020;-1.740;2022-12-07T02:11:54;100764.75;;;-2.03;100.00
51452;BME280;37521;52.020;-1.740;2022-12-07T02:14:23;100768.97;;;-2.08;100.00
51452;BME280;37521;52.020;-1.740;2022-12-07T02:17:02;100765.47;;;-2.13;100.00
51452;BME280;37521;52.020;-1.740;2022-12-07T02:20:00;100767.94;;;-2.20;100.00
51452;BME280;37521;52.020;-1.740;2022-12-07T02:22:55;100766.03;;;-2.30;100.00
51452;BME280;37521;52.020;-1.740;2022-12-07T02:25:40;100765.78;;;-2.42;100.00
51452;BME280;37521;52.020;-1.740;2022-12-07T02:28:19;100765.72;;;-2.47;100.00
51452;BME280;37521;52.020;-1.740;2022-12-07T02:31:01;100768.09;;;-2.57;100.00
51452;BME280;37521;52.020;-1.740;2022-12-07T02:33:35;100754.28;;;-2.59;100.00
51452;BME280;37521;52.020;-1.740;2022-12-07T02:36:07;100762.09;;;-2.56;100.00
51452;BME280;37521;52.020;-1.740;2022-12-07T02:38:40;100769.81;;;-2.58;100.00
51452;BME280;37521;52.020;-1.740;2022-12-07T02:41:15;100770.53;;;-2.66;100.00
51452;BME280;37521;52.020;-1.740;2022-12-07T02:43:48;100768.50;;;-2.81;100.00
51452;BME280;37521;52.020;-1.740;2022-12-07T02:46:22;100766.50;;;-2.94;100.00
51452;BME280;37521;52.020;-1.740;2022-12-07T02:48:51;100764.72;;;-2.97;100.00
51452;BME280;37521;52.020;-1.740;2022-12-07T02:51:21;100768.22;;;-2.95;100.00
51452;BME280;37521;52.020;-1.740;2022-12-07T02:53:50;100758.81;;;-2.93;100.00
51452;BME280;37521;52.020;-1.740;2022-12-07T02:56:26;100752.75;;;-2.93;100.00
51452;BME280;37521;52.020;-1.740;2022-12-07T02:59:02;100751.91;;;-2.92;100.00
51452;BME280;37521;52.020;-1.740;2022-12-07T03:01:43;100753.41;;;-3.04;100.00
51452;BME280;37521;52.020;-1.740;2022-12-07T03:04:32;100750.66;;;-3.11;100.00
51452;BME280;37521;52.020;-1.740;2022-12-07T03:07:11;100748.09;;;-3.11;100.00
51452;BME280;37521;52.020;-1.740;2022-12-07T03:09:45;100738.72;;;-3.06;100.00
51452;BME280;37521;52.020;-1.740;2022-12-07T03:12:24;100748.09;;;-3.11;100.00
51452;BME280;37521;52.020;-1.740;2022-12-07T03:14:59;100740.28;;;-3.14;100.00
51452;BME280;37521;52.020;-1.740;2022-12-07T03:17:32;100734.19;;;-3.16;100.00
51452;BME280;37521;52.020;-1.740;2022-12-07T03:20:04;100732.31;;;-3.25;100.00
51452;BME280;37521;52.020;-1.740;2022-12-07T03:22:35;100738.34;;;-3.24;100.00
51452;BME280;37521;52.020;-1.740;2022-12-07T03:25:09;100733.00;;;-3.32;100.00
51452;BME280;37521;52.020;-1.740;2022-12-07T03:27:42;100735.50;;;-3.35;100.00
51452;BME280;37521;52.020;-1.740;2022-12-07T03:30:16;100741.53;;;-3.35;100.00
51452;BME280;37521;52.020;-1.740;2022-12-07T03:32:50;100733.13;;;-3.27;100.00
51452;BME280;37521;52.020;-1.740;2022-12-07T03:35:24;100739.88;;;-3.34;100.00
51452;BME280;37521;52.020;-1.740;2022-12-07T03:37:56;100737.19;;;-3.39;100.00
51452;BME280;37521;52.020;-1.740;2022-12-07T03:40:29;100738.78;;;-3.44;100.00
51452;BME280;37521;52.020;-1.740;2022-12-07T03:43:00;100749.94;;;-3.45;100.00
51452;BME280;37521;52.020;-1.740;2022-12-07T03:45:34;100738.00;;;-3.40;100.00
51452;BME280;37521;52.020;-1.740;2022-12-07T03:48:08;100744.06;;;-3.38;100.00
51452;BME280;37521;52.020;-1.740;2022-12-07T03:50:49;100740.53;;;-3.41;100.00
51452;BME280;37521;52.020;-1.740;2022-12-07T03:53:22;100738.75;;;-3.45;100.00
51452;BME280;37521;52.020;-1.740;2022-12-07T03:55:52;100736.19;;;-3.44;100.00
51452;BME280;37521;52.020;-1.740;2022-12-07T03:58:23;100736.16;;;-3.47;100.00
51452;BME280;37521;52.020;-1.740;2022-12-07T04:00:52;100738.72;;;-3.47;100.00
51452;BME280;37521;52.020;-1.740;2022-12-07T04:03:21;100736.28;;;-3.41;100.00
51452;BME280;37521;52.020;-1.740;2022-12-07T04:05:49;100726.13;;;-3.32;100.00
51452;BME280;37521;52.020;-1.740;2022-12-07T04:08:18;100725.31;;;-3.29;100.00
51452;BME280;37521;52.020;-1.740;2022-12-07T04:10:46;100726.75;;;-3.43;100.00
51452;BME280;37521;52.020;-1.740;2022-12-07T04:13:14;100725.72;;;-3.51;100.00
51452;BME280;37521;52.020;-1.740;2022-12-07T04:15:42;100713.78;;;-3.46;100.00
51452;BME280;37521;52.020;-1.740;2022-12-07T04:18:10;100720.84;;;-3.38;100.00
51452;BME280;37521;52.020;-1.740;2022-12-07T04:20:40;100723.41;;;-3.38;100.00
51452;BME280;37521;52.020;-1.740;2022-12-07T04:23:08;100725.94;;;-3.41;100.00
51452;BME280;37521;52.020;-1.740;2022-12-07T04:25:36;100726.00;;;-3.38;100.00
51452;BME280;37521;52.020;-1.740;2022-12-07T04:28:04;100716.53;;;-3.39;100.00
51452;BME280;37521;52.020;-1.740;2022-12-07T04:30:32;100713.81;;;-3.45;100.00
51452;BME280;37521;52.020;-1.740;2022-12-07T04:33:00;100719.78;;;-3.47;100.00
51452;BME280;37521;52.020;-1.740;2022-12-07T04:35:29;100708.63;;;-3.45;100.00
51452;BME280;37521;52.020;-1.740;2022-12-07T04:37:58;100705.03;;;-3.53;100.00
51452;BME280;37521;52.020;-1.740;2022-12-07T04:40:26;100707.19;;;-3.71;100.00
51452;BME280;37521;52.020;-1.740;2022-12-07T04:42:54;100714.06;;;-3.72;100.00
51452;BME280;37521;52.020;-1.740;2022-12-07T04:45:22;100711.66;;;-3.64;100.00
51452;BME280;37521;52.020;-1.740;2022-12-07T04:47:51;100707.38;;;-3.64;100.00
51452;BME280;37521;52.020;-1.740;2022-12-07T04:50:19;100710.81;;;-3.63;100.00
51452;BME280;37521;52.020;-1.740;2022-12-07T04:52:47;100703.97;;;-3.61;100.00
51452;BME280;37521;52.020;-1.740;2022-12-07T04:55:16;100701.34;;;-3.64;100.00
51452;BME280;37521;52.020;-1.740;2022-12-07T04:57:44;100695.97;;;-3.73;100.00
51452;BME280;37521;52.020;-1.740;2022-12-07T05:00:13;100710.50;;;-3.77;100.00
51452;BME280;37521;52.020;-1.740;2022-12-07T05:02:41;100714.94;;;-3.71;100.00
51452;BME280;37521;52.020;-1.740;2022-12-07T05:05:09;100710.72;;;-3.68;100.00
51452;BME280;37521;52.020;-1.740;2022-12-07T05:07:37;100711.50;;;-3.70;100.00
51452;BME280;37521;52.020;-1.740;2022-12-07T05:10:06;100711.59;;;-3.67;100.00
51452;BME280;37521;52.020;-1.740;2022-12-07T05:12:36;100706.50;;;-3.64;100.00
51452;BME280;37521;52.020;-1.740;2022-12-07T05:15:05;100712.63;;;-3.59;100.00
51452;BME280;37521;52.020;-1.740;2022-12-07T05:17:33;100706.78;;;-3.52;100.00
51452;BME280;37521;52.020;-1.740;2022-12-07T05:20:01;100702.38;;;-3.56;100.00
51452;BME280;37521;52.020;-1.740;2022-12-07T05:22:30;100694.47;;;-3.62;100.00
51452;BME280;37521;52.020;-1.740;2022-12-07T05:24:58;100697.84;;;-3.66;100.00
51452;BME280;37521;52.020;-1.740;2022-12-07T05:27:26;100691.06;;;-3.61;100.00
51452;BME280;37521;52.020;-1.740;2022-12-07T05:29:56;100684.22;;;-3.61;100.00
51452;BME280;37521;52.020;-1.740;2022-12-07T05:32:24;100685.97;;;-3.58;100.00
51452;BME280;37521;52.020;-1.740;2022-12-07T05:34:52;100687.81;;;-3.54;100.00
51452;BME280;37521;52.020;-1.740;2022-12-07T05:37:21;100682.44;;;-3.62;100.00
51452;BME280;37521;52.020;-1.740;2022-12-07T05:39:49;100687.53;;;-3.66;100.00
51452;BME280;37521;52.020;-1.740;2022-12-07T05:42:17;100695.16;;;-3.71;100.00
51452;BME280;37521;52.020;-1.740;2022-12-07T05:44:46;100695.00;;;-3.78;100.00
51452;BME280;37521;52.020;-1.740;2022-12-07T05:47:16;100693.88;;;-3.90;100.00
51452;BME280;37521;52.020;-1.740;2022-12-07T05:49:44;100687.97;;;-3.86;100.00
51452;BME280;37521;52.020;-1.740;2022-12-07T05:52:12;100693.34;;;-3.75;100.00
51452;BME280;37521;52.020;-1.740;2022-12-07T05:54:41;100697.72;;;-3.72;100.00
51452;BME280;37521;52.020;-1.740;2022-12-07T05:57:09;100693.53;;;-3.67;100.00
51452;BME280;37521;52.020;-1.740;2022-12-07T05:59:37;100695.16;;;-3.71;100.00
51452;BME280;37521;52.020;-1.740;2022-12-07T06:02:06;100692.56;;;-3.72;100.00
51452;BME280;37521;52.020;-1.740;2022-12-07T06:04:38;100689.13;;;-3.71;100.00
51452;BME280;37521;52.020;-1.740;2022-12-07T06:07:08;100694.25;;;-3.74;100.00
51452;BME280;37521;52.020;-1.740;2022-12-07T06:09:37;100690.59;;;-3.83;100.00
51452;BME280;37521;52.020;-1.740;2022-12-07T06:12:05;100690.41;;;-3.92;100.00
51452;BME280;37521;52.020;-1.740;2022-12-07T06:14:51;100692.16;;;-3.89;100.00
51452;BME280;37521;52.020;-1.740;2022-12-07T06:17:20;100689.56;;;-3.91;100.00
51452;BME280;37521;52.020;-1.740;2022-12-07T06:19:49;100690.59;;;-3.83;100.00
51452;BME280;37521;52.020;-1.740;2022-12-07T06:22:17;100693.97;;;-3.87;100.00
51452;BME280;37521;52.020;-1.740;2022-12-07T06:24:46;100684.19;;;-4.00;100.00
51452;BME280;37521;52.020;-1.740;2022-12-07T06:27:14;100683.25;;;-4.02;100.00
51452;BME280;37521;52.020;-1.740;2022-12-07T06:29:42;100697.28;;;-3.91;100.00
51452;BME280;37521;52.020;-1.740;2022-12-07T06:32:10;100688.47;;;-4.00;100.00
51452;BME280;37521;52.020;-1.740;2022-12-07T06:34:39;100687.66;;;-3.98;100.00
51452;BME280;37521;52.020;-1.740;2022-12-07T06:37:08;100697.38;;;-3.88;100.00
51452;BME280;37521;52.020;-1.740;2022-12-07T06:39:36;100695.84;;;-3.79;100.00
51452;BME280;37521;52.020;-1.740;2022-12-07T06:42:05;100697.69;;;-3.74;100.00
51452;BME280;37521;52.020;-1.740;2022-12-07T06:44:33;100701.19;;;-3.70;100.00
51452;BME280;37521;52.020;-1.740;2022-12-07T06:47:02;100697.00;;;-3.65;100.00
51452;BME280;37521;52.020;-1.740;2022-12-07T06:49:51;100685.91;;;-3.61;100.00
51452;BME280;37521;52.020;-1.740;2022-12-07T06:52:20;100684.97;;;-3.65;100.00
51452;BME280;37521;52.020;-1.740;2022-12-07T06:54:49;100686.56;;;-3.70;100.00
51452;BME280;37521;52.020;-1.740;2022-12-07T06:57:17;100690.03;;;-3.69;100.00
51452;BME280;37521;52.020;-1.740;2022-12-07T06:59:47;100689.13;;;-3.71;100.00
51452;BME280;37521;52.020;-1.740;2022-12-07T07:02:15;100688.44;;;-3.64;100.00
51452;BME280;37521;52.020;-1.740;2022-12-07T07:04:43;100682.41;;;-3.63;100.00
51452;BME280;37521;52.020;-1.740;2022-12-07T07:07:12;100679.97;;;-3.57;100.00
51452;BME280;37521;52.020;-1.740;2022-12-07T07:09:41;100689.41;;;-3.59;100.00
51452;BME280;37521;52.020;-1.740;2022-12-07T07:12:09;100686.56;;;-3.70;100.00
51452;BME280;37521;52.020;-1.740;2022-12-07T07:14:37;100690.69;;;-3.79;100.00
51452;BME280;37521;52.020;-1.740;2022-12-07T07:17:06;100695.59;;;-3.90;100.00
51452;BME280;37521;52.020;-1.740;2022-12-07T07:19:34;100694.53;;;-3.98;100.00
51452;BME280;37521;52.020;-1.740;2022-12-07T07:22:03;100696.97;;;-4.04;100.00
51452;BME280;37521;52.020;-1.740;2022-12-07T07:24:32;100697.00;;;-4.03;100.00
51452;BME280;37521;52.020;-1.740;2022-12-07T07:27:01;100693.66;;;-3.99;100.00
51452;BME280;37521;52.020;-1.740;2022-12-07T07:29:29;100691.09;;;-3.99;100.00
51452;BME280;37521;52.020;-1.740;2022-12-07T07:31:57;100699.50;;;-4.07;100.00
51452;BME280;37521;52.020;-1.740;2022-12-07T07:34:32;100696.84;;;-4.09;100.00
51452;BME280;37521;52.020;-1.740;2022-12-07T07:37:00;100691.53;;;-4.15;100.00
51452;BME280;37521;52.020;-1.740;2022-12-07T07:39:29;100690.63;;;-4.19;100.00
51452;BME280;37521;52.020;-1.740;2022-12-07T07:41:57;100696.66;;;-4.18;100.00
51452;BME280;37521;52.020;-1.740;2022-12-07T07:44:28;100686.44;;;-4.14;100.00
51452;BME280;37521;52.020;-1.740;2022-12-07T07:47:01;100683.94;;;-4.11;100.00
51452;BME280;37521;52.020;-1.740;2022-12-07T07:49:29;100695.91;;;-4.14;100.00
51452;BME280;37521;52.020;-1.740;2022-12-07T07:51:58;100691.22;;;-4.29;100.00
51452;BME280;37521;52.020;-1.740;2022-12-07T07:54:26;100693.00;;;-4.26;100.00
51452;BME280;37521;52.020;-1.740;2022-12-07T07:56:55;100691.50;;;-4.18;100.00
51452;BME280;37521;52.020;-1.740;2022-12-07T07:59:24;100692.22;;;-4.24;100.00
51452;BME280;37521;52.020;-1.740;2022-12-07T08:01:53;100687.63;;;-4.35;100.00
51452;BME280;37521;52.020;-1.740;2022-12-07T08:04:22;100690.88;;;-4.43;100.00
51452;BME280;37521;52.020;-1.740;2022-12-07T08:06:50;100687.25;;;-4.51;100.00
51452;BME280;37521;52.020;-1.740;2022-12-07T08:09:19;100693.97;;;-4.56;100.00
51452;BME280;37521;52.020;-1.740;2022-12-07T08:11:47;100696.69;;;-4.51;100.00
51452;BME280;37521;52.020;-1.740;2022-12-07T08:14:15;100694.22;;;-4.47;100.00
51452;BME280;37521;52.020;-1.740;2022-12-07T08:16:43;100699.53;;;-4.41;100.00
51452;BME280;37521;52.020;-1.740;2022-12-07T08:19:13;100701.28;;;-4.40;100.00
51452;BME280;37521;52.020;-1.740;2022-12-07T08:21:41;100697.78;;;-4.42;100.00
51452;BME280;37521;52.020;-1.740;2022-12-07T08:24:09;100697.78;;;-4.42;100.00
51452;BME280;37521;52.020;-1.740;2022-12-07T08:26:37;100701.19;;;-4.43;100.00
51452;BME280;37521;52.020;-1.740;2022-12-07T08:29:05;100708.81;;;-4.47;100.00
51452;BME280;37521;52.020;-1.740;2022-12-07T08:31:34;100696.66;;;-4.53;100.00
51452;BME280;37521;52.020;-1.740;2022-12-07T08:34:03;100692.28;;;-4.55;100.00
51452;BME280;37521;52.020;-1.740;2022-12-07T08:36:32;100701.66;;;-4.59;100.00
51452;BME280;37521;52.020;-1.740;2022-12-07T08:39:01;100697.38;;;-4.57;100.00
51452;BME280;37521;52.020;-1.740;2022-12-07T08:41:49;100695.81;;;-4.52;100.00
51452;BME280;37521;52.020;-1.740;2022-12-07T08:44:17;100690.72;;;-4.49;100.00
51452;BME280;37521;52.020;-1.740;2022-12-07T08:46:47;100694.22;;;-4.47;100.00
51452;BME280;37521;52.020;-1.740;2022-12-07T08:49:21;100684.81;;;-4.45;100.00
51452;BME280;37521;52.020;-1.740;2022-12-07T08:51:52;100684.13;;;-4.38;100.00
51452;BME280;37521;52.020;-1.740;2022-12-07T08:54:20;100687.84;;;-4.26;100.00
51452;BME280;37521;52.020;-1.740;2022-12-07T08:56:49;100684.59;;;-4.19;100.00
51452;BME280;37521;52.020;-1.740;2022-12-07T08:59:26;100682.06;;;-4.16;100.00
51452;BME280;37521;52.020;-1.740;2022-12-07T09:01:54;100679.50;;;-4.16;100.00
51452;BME280;37521;52.020;-1.740;2022-12-07T09:04:23;100684.75;;;-4.13;100.00
51452;BME280;37521;52.020;-1.740;2022-12-07T09:06:53;100679.78;;;-4.04;100.00
51452;BME280;37521;52.020;-1.740;2022-12-07T09:09:22;100674.78;;;-3.98;100.00
51452;BME280;37521;52.020;-1.740;2022-12-07T09:11:50;100673.19;;;-3.93;100.00
51452;BME280;37521;52.020;-1.740;2022-12-07T09:14:18;100681.81;;;-3.91;100.00
51452;BME280;37521;52.020;-1.740;2022-12-07T09:16:47;100681.94;;;-3.85;100.00
51452;BME280;37521;52.020;-1.740;2022-12-07T09:19:15;100682.09;;;-3.78;100.00
51452;BME280;37521;52.020;-1.740;2022-12-07T09:21:43;100678.81;;;-3.71;100.00
51452;BME280;37521;52.020;-1.740;2022-12-07T09:24:13;100675.53;;;-3.64;100.00
51452;BME280;37521;52.020;-1.740;2022-12-07T09:26:41;100679.13;;;-3.56;100.00
51452;BME280;37521;52.020;-1.740;2022-12-07T09:29:11;100679.47;;;-3.41;100.00
51452;BME280;37521;52.020;-1.740;2022-12-07T09:31:40;100682.38;;;-3.25;100.00
51452;BME280;37521;52.020;-1.740;2022-12-07T09:34:08;100673.88;;;-3.20;100.00
51452;BME280;37521;52.020;-1.740;2022-12-07T09:36:37;100681.78;;;-3.12;100.00
51452;BME280;37521;52.020;-1.740;2022-12-07T09:39:05;100692.22;;;-3.06;100.00
51452;BME280;37521;52.020;-1.740;2022-12-07T09:41:37;100681.91;;;-3.05;100.00
51452;BME280;37521;52.020;-1.740;2022-12-07T09:44:10;100672.50;;;-3.01;100.00
51452;BME280;37521;52.020;-1.740;2022-12-07T09:46:41;100678.75;;;-2.90;100.00
51452;BME280;37521;52.020;-1.740;2022-12-07T09:49:14;100678.97;;;-2.79;100.00
51452;BME280;37521;52.020;-1.740;2022-12-07T09:51:44;100678.25;;;-2.70;100.00
51452;BME280;37521;52.020;-1.740;2022-12-07T09:54:14;100686.22;;;-2.58;100.00
51452;BME280;37521;52.020;-1.740;2022-12-07T09:56:44;100682.19;;;-2.42;100.00
51452;BME280;37521;52.020;-1.740;2022-12-07T09:59:17;100671.19;;;-2.31;100.00
51452;BME280;37521;52.020;-1.740;2022-12-07T10:01:47;100661.94;;;-2.15;100.00
51452;BME280;37521;52.020;-1.740;2022-12-07T10:04:19;100662.97;;;-2.05;100.00
51452;BME280;37521;52.020;-1.740;2022-12-07T10:06:48;100667.41;;;-1.97;100.00
51452;BME280;37521;52.020;-1.740;2022-12-07T10:09:20;100657.13;;;-1.92;100.00
51452;BME280;37521;52.020;-1.740;2022-12-07T10:12:09;100653.78;;;-1.85;100.00
51452;BME280;37521;52.020;-1.740;2022-12-07T10:14:40;100668.56;;;-1.76;100.00
51452;BME280;37521;52.020;-1.740;2022-12-07T10:17:37;100660.88;;;-1.69;100.00
51452;BME280;37521;52.020;-1.740;2022-12-07T10:20:15;100672.16;;;-1.67;100.00
51452;BME280;37521;52.020;-1.740;2022-12-07T10:23:02;100656.72;;;-1.59;100.00
51452;BME280;37521;52.020;-1.740;2022-12-07T10:25:33;100660.28;;;-1.51;100.00
51452;BME280;37521;52.020;-1.740;2022-12-07T10:28:12;100652.59;;;-1.45;100.00
51452;BME280;37521;52.020;-1.740;2022-12-07T10:30:51;100647.47;;;-1.40;100.00
51452;BME280;37521;52.020;-1.740;2022-12-07T10:33:40;100646.63;;;-1.39;100.00
51452;BME280;37521;52.020;-1.740;2022-12-07T10:36:19;100638.94;;;-1.31;100.00
51452;BME280;37521;52.020;-1.740;2022-12-07T10:38:49;100633.84;;;-1.24;100.00
51452;BME280;37521;52.020;-1.740;2022-12-07T10:41:18;100636.50;;;-1.18;100.00
51452;BME280;37521;52.020;-1.740;2022-12-07T10:43:51;100636.66;;;-1.05;100.00
51452;BME280;37521;52.020;-1.740;2022-12-07T10:46:50;100635.00;;;-0.94;100.00
51452;BME280;37521;52.020;-1.740;2022-12-07T10:49:45;100636.72;;;-0.96;100.00
51452;BME280;37521;52.020;-1.740;2022-12-07T10:52:18;100627.16;;;-1.02;100.00
51452;BME280;37521;52.020;-1.740;2022-12-07T10:55:00;100628.00;;;-1.04;100.00
51452;BME280;37521;52.020;-1.740;2022-12-07T10:57:40;100628.84;;;-1.07;100.00
51452;BME280;37521;52.020;-1.740;2022-12-07T11:00:18;100627.97;;;-1.07;100.00
51452;BME280;37521;52.020;-1.740;2022-12-07T11:02:59;100628.94;;;-0.98;100.00
51452;BME280;37521;52.020;-1.740;2022-12-07T11:05:39;100629.94;;;-0.87;100.00
51452;BME280;37521;52.020;-1.740;2022-12-07T11:08:16;100626.59;;;-0.73;100.00
51452;BME280;37521;52.020;-1.740;2022-12-07T11:10:51;100621.38;;;-0.75;100.00
51452;BME280;37521;52.020;-1.740;2022-12-07T11:13:27;100617.00;;;-0.84;100.00
51452;BME280;37521;52.020;-1.740;2022-12-07T11:16:19;100624.63;;;-0.96;100.00
51452;BME280;37521;52.020;-1.740;2022-12-07T11:18:59;100617.66;;;-1.01;100.00
51452;BME280;37521;52.020;-1.740;2022-12-07T11:21:35;100611.59;;;-1.05;100.00
51452;BME280;37521;52.020;-1.740;2022-12-07T11:24:10;100607.28;;;-1.04;100.00
51452;BME280;37521;52.020;-1.740;2022-12-07T11:26:54;100598.66;;;-1.03;100.00
51452;BME280;37521;52.020;-1.740;2022-12-07T11:29:42;100599.50;;;-1.03;100.00
51452;BME280;37521;52.020;-1.740;2022-12-07T11:32:19;100595.19;;;-1.05;100.00
51452;BME280;37521;52.020;-1.740;2022-12-07T11:34:59;100584.81;;;-1.05;100.00
51452;BME280;37521;52.020;-1.740;2022-12-07T11:37:35;100572.72;;;-1.03;100.00
51452;BME280;37521;52.020;-1.740;2022-12-07T11:40:15;100572.72;;;-1.03;100.00
51452;BME280;37521;52.020;-1.740;2022-12-07T11:42:49;100568.41;;;-1.01;100.00
51452;BME280;37521;52.020;-1.740;2022-12-07T11:45:23;100566.69;;;-1.01;100.00
51452;BME280;37521;52.020;-1.740;2022-12-07T11:47:59;100566.69;;;-1.02;100.00
51452;BME280;37521;52.020;-1.740;2022-12-07T11:50:34;100565.88;;;-1.00;100.00
51452;BME280;37521;52.020;-1.740;2022-12-07T11:53:10;100549.47;;;-0.96;100.00
51452;BME280;37521;52.020;-1.740;2022-12-07T11:55:47;100552.97;;;-0.91;100.00
51452;BME280;37521;52.020;-1.740;2022-12-07T11:58:27;100551.25;;;-0.89;100.00
51452;BME280;37521;52.020;-1.740;2022-12-07T12:01:13;100553.03;;;-0.85;100.00
51452;BME280;37521;52.020;-1.740;2022-12-07T12:03:45;100541.81;;;-0.82;100.00
51452;BME280;37521;52.020;-1.740;2022-12-07T12:06:20;100545.31;;;-0.77;100.00
51452;BME280;37521;52.020;-1.740;2022-12-07T12:08:53;100543.59;;;-0.78;100.00
51452;BME280;37521;52.020;-1.740;2022-12-07T12:12:02;100536.63;;;-0.82;100.00
51452;BME280;37521;52.020;-1.740;2022-12-07T12:15:02;100535.75;;;-0.83;100.00
51452;BME280;37521;52.020;-1.740;2022-12-07T12:20:31;100524.56;;;-0.80;100.00
51452;BME280;37521;52.020;-1.740;2022-12-07T12:23:07;100514.16;;;-0.83;100.00
51452;BME280;37521;52.020;-1.740;2022-12-07T12:25:41;100513.28;;;-0.84;100.00
51452;BME280;37521;52.020;-1.740;2022-12-07T12:28:22;100512.44;;;-0.81;100.00
51452;BME280;37521;52.020;-1.740;2022-12-07T12:31:12;100498.66;;;-0.77;100.00
51452;BME280;37521;52.020;-1.740;2022-12-07T12:34:00;100498.66;;;-0.77;100.00
51452;BME280;37521;52.020;-1.740;2022-12-07T12:36:45;100502.09;;;-0.75;100.00
51452;BME280;37521;52.020;-1.740;2022-12-07T12:39:15;100491.75;;;-0.75;100.00
51452;BME280;37521;52.020;-1.740;2022-12-07T12:42:03;100493.50;;;-0.71;100.00
51452;BME280;37521;52.020;-1.740;2022-12-07T12:45:03;100487.50;;;-0.65;100.00
51452;BME280;37521;52.020;-1.740;2022-12-07T12:47:52;100483.22;;;-0.59;100.00
51452;BME280;37521;52.020;-1.740;2022-12-07T12:50:25;100482.31;;;-0.62;100.00
51452;BME280;37521;52.020;-1.740;2022-12-07T12:53:15;100479.72;;;-0.67;100.00
51452;BME280;37521;52.020;-1.740;2022-12-07T13:01:50;100478.72;;;-0.81;100.00
51452;BME280;37521;52.020;-1.740;2022-12-07T13:04:25;100477.91;;;-0.80;100.00
51452;BME280;37521;52.020;-1.740;2022-12-07T13:10:37;100468.34;;;-0.81;100.00